createdAt,value
2022-12-01T00:01:22.749Z,20.25
2022-12-01T00:03:49.768Z,18.83
2022-12-01T00:06:20.225Z,18.13
2022-12-01T00:09:10.899Z,19.05
2022-12-01T00:11:39.842Z,17.48
2022-12-01T00:14:07.178Z,18.60
2022-12-01T00:16:34.108Z,19.08
2022-12-01T00:19:00.940Z,16.20
2022-12-01T00:21:28.742Z,17.27
2022-12-01T00:23:58.166Z,18.05
2022-12-01T00:26:27.219Z,18.17
2022-12-01T00:28:58.091Z,18.00
2022-12-01T00:31:26.185Z,18.83
2022-12-01T00:33:53.344Z,18.98
2022-12-01T00:36:21.531Z,18.63
2022-12-01T00:38:51.153Z,20.48
2022-12-01T00:41:18.205Z,18.50
2022-12-01T00:43:44.976Z,19.02
2022-12-01T00:46:11.708Z,19.83
2022-12-01T00:48:38.556Z,19.85
2022-12-01T00:51:05.646Z,20.13
2022-12-01T00:53:32.773Z,21.08
2022-12-01T00:56:00.031Z,19.13
2022-12-01T00:58:27.482Z,20.55
2022-12-01T01:01:02.473Z,18.38
2022-12-01T01:03:30.142Z,18.20
2022-12-01T01:06:00.272Z,17.63
2022-12-01T01:08:26.966Z,18.20
2022-12-01T01:10:53.654Z,17.27
2022-12-01T01:13:20.453Z,20.50
2022-12-01T01:16:02.627Z,16.73
2022-12-01T01:18:30.282Z,18.23
2022-12-01T01:21:10.715Z,18.25
2022-12-01T01:23:38.406Z,18.42
2022-12-01T01:26:14.553Z,17.83
2022-12-01T01:28:41.760Z,19.38
2022-12-01T01:31:11.843Z,18.35
2022-12-01T01:33:39.045Z,16.52
2022-12-01T01:36:07.185Z,17.42
2022-12-01T01:38:35.062Z,19.02
2022-12-01T01:41:03.787Z,17.88
2022-12-01T01:43:44.156Z,16.08
2022-12-01T01:46:18.409Z,17.00
2022-12-01T01:48:54.744Z,18.08
2022-12-01T01:51:49.277Z,18.83
2022-12-01T01:54:25.086Z,18.83
2022-12-01T01:56:54.773Z,18.55
2022-12-01T01:59:29.651Z,18.48
2022-12-01T02:02:06.559Z,17.83
2022-12-01T02:04:40.178Z,18.02
2022-12-01T02:07:15.580Z,19.52
2022-12-01T02:09:42.276Z,19.38
2022-12-01T02:12:46.875Z,18.58
2022-12-01T02:15:54.891Z,19.30
2022-12-01T02:18:50.328Z,16.90
2022-12-01T02:21:47.468Z,18.45
2022-12-01T02:24:26.120Z,18.38
2022-12-01T02:29:50.860Z,18.92
2022-12-01T02:32:28.140Z,19.75
2022-12-01T02:35:12.792Z,18.52
2022-12-01T02:38:19.082Z,19.30
2022-12-01T02:41:20.372Z,19.33
2022-12-01T02:44:05.784Z,18.52
2022-12-01T02:46:39.700Z,18.13
2022-12-01T02:49:19.459Z,19.73
2022-12-01T02:51:48.727Z,17.88
2022-12-01T02:54:16.013Z,17.77
2022-12-01T02:56:46.064Z,19.33
2022-12-01T02:59:15.294Z,19.30
2022-12-01T03:02:00.644Z,17.92
2022-12-01T03:04:56.422Z,18.95
2022-12-01T03:07:47.988Z,18.92
2022-12-01T03:10:33.826Z,18.08
2022-12-01T03:13:37.968Z,19.73
2022-12-01T03:16:39.068Z,18.67
2022-12-01T03:19:18.792Z,18.55
2022-12-01T03:22:04.855Z,18.90
2022-12-01T03:24:34.356Z,19.52
2022-12-01T03:27:04.328Z,17.10
2022-12-01T03:29:41.443Z,18.05
2022-12-01T03:32:20.522Z,18.90
2022-12-01T03:34:49.962Z,18.65
2022-12-01T03:37:32.286Z,17.60
2022-12-01T03:40:02.638Z,17.02
2022-12-01T03:42:43.378Z,18.52
2022-12-01T03:45:20.020Z,17.70
2022-12-01T03:47:47.091Z,17.63
2022-12-01T03:50:15.400Z,17.65
2022-12-01T03:53:02.289Z,16.70
2022-12-01T03:55:35.665Z,19.27
2022-12-01T03:58:25.976Z,17.67
2022-12-01T04:00:57.504Z,17.88
2022-12-01T04:03:26.508Z,18.23
2022-12-01T04:05:53.791Z,18.45
2022-12-01T04:08:20.627Z,17.88
2022-12-01T04:10:47.379Z,18.00
2022-12-01T04:13:22.744Z,17.95
2022-12-01T04:15:51.127Z,16.58
2022-12-01T04:18:19.079Z,17.90
2022-12-01T04:20:50.141Z,17.27
2022-12-01T04:23:35.329Z,19.15
2022-12-01T04:26:04.811Z,17.75
2022-12-01T04:28:31.780Z,18.15
2022-12-01T04:30:58.525Z,17.85
2022-12-01T04:33:25.771Z,16.73
2022-12-01T04:36:00.099Z,19.50
2022-12-01T04:38:30.561Z,17.02
2022-12-01T04:40:58.207Z,18.35
2022-12-01T04:43:25.087Z,19.05
2022-12-01T04:45:51.784Z,17.92
2022-12-01T04:48:18.604Z,17.70
2022-12-01T04:50:45.308Z,17.35
2022-12-01T04:53:12.025Z,17.95
2022-12-01T04:55:39.392Z,18.38
2022-12-01T04:58:06.810Z,17.48
2022-12-01T05:00:34.301Z,17.98
2022-12-01T05:03:01.218Z,17.23
2022-12-01T05:05:28.130Z,17.92
2022-12-01T05:07:55.003Z,17.52
2022-12-01T05:10:22.300Z,17.27
2022-12-01T05:12:49.691Z,16.75
2022-12-01T05:15:17.060Z,18.73
2022-12-01T05:17:44.452Z,17.52
2022-12-01T05:20:39.661Z,17.25
2022-12-01T05:23:08.261Z,18.35
2022-12-01T05:25:37.897Z,18.83
2022-12-01T05:28:06.516Z,18.55
2022-12-01T05:30:33.423Z,19.67
2022-12-01T05:33:00.211Z,19.20
2022-12-01T05:35:27.419Z,18.75
2022-12-01T05:37:54.244Z,20.08
2022-12-01T05:40:21.066Z,18.52
2022-12-01T05:42:47.867Z,18.90
2022-12-01T05:45:14.747Z,20.88
2022-12-01T05:47:41.510Z,20.35
2022-12-01T05:50:09.067Z,19.38
2022-12-01T05:52:36.622Z,19.52
2022-12-01T05:55:05.731Z,20.05
2022-12-01T05:57:33.926Z,19.05
2022-12-01T06:00:00.696Z,19.00
2022-12-01T06:02:27.446Z,14.68
2022-12-01T06:04:54.190Z,16.10
2022-12-01T06:07:23.456Z,17.50
2022-12-01T06:09:50.534Z,17.52
2022-12-01T06:12:19.229Z,17.42
2022-12-01T06:14:47.515Z,17.10
2022-12-01T06:17:15.053Z,18.75
2022-12-01T06:19:43.351Z,17.27
2022-12-01T06:22:10.999Z,17.40
2022-12-01T06:24:37.680Z,18.15
2022-12-01T06:27:04.418Z,18.00
2022-12-01T06:29:31.224Z,16.98
2022-12-01T06:31:58.144Z,17.15
2022-12-01T06:34:24.914Z,18.42
2022-12-01T06:36:51.690Z,18.70
2022-12-01T06:39:18.531Z,16.25
2022-12-01T06:41:45.268Z,17.35
2022-12-01T06:44:12.044Z,16.85
2022-12-01T06:46:38.861Z,18.08
2022-12-01T06:49:05.824Z,17.90
2022-12-01T06:51:34.346Z,17.85
2022-12-01T06:54:05.433Z,17.13
2022-12-01T06:56:32.572Z,18.10
2022-12-01T06:58:59.764Z,17.98
2022-12-01T07:01:27.068Z,19.13
2022-12-01T07:03:54.808Z,16.88
2022-12-01T07:06:21.867Z,17.98
2022-12-01T07:08:48.693Z,16.77
2022-12-01T07:11:16.628Z,19.30
2022-12-01T07:13:49.432Z,18.13
2022-12-01T07:16:16.425Z,17.50
2022-12-01T07:18:45.091Z,17.73
2022-12-01T07:21:15.068Z,17.65
2022-12-01T07:23:42.447Z,17.95
2022-12-01T07:26:16.415Z,18.23
2022-12-01T07:28:44.662Z,16.98
2022-12-01T07:31:18.452Z,16.50
2022-12-01T07:33:45.485Z,19.20
2022-12-01T07:36:13.646Z,18.17
2022-12-01T07:38:40.750Z,17.98
2022-12-01T07:41:12.291Z,19.05
2022-12-01T07:43:39.962Z,19.90
2022-12-01T07:46:18.920Z,17.98
2022-12-01T07:48:49.277Z,18.05
2022-12-01T07:51:17.356Z,17.48
2022-12-01T07:53:50.404Z,17.05
2022-12-01T07:56:19.009Z,19.08
2022-12-01T07:58:47.448Z,20.25
2022-12-01T08:01:27.473Z,17.52
2022-12-01T08:03:57.471Z,16.85
2022-12-01T08:06:26.938Z,18.17
2022-12-01T08:08:53.704Z,18.38
2022-12-01T08:11:25.073Z,19.30
2022-12-01T08:13:53.245Z,17.73
2022-12-01T08:16:23.200Z,18.75
2022-12-01T08:18:51.073Z,18.38
2022-12-01T08:21:21.161Z,17.20
2022-12-01T08:23:48.850Z,18.08
2022-12-01T08:26:18.531Z,18.48
2022-12-01T08:28:46.639Z,17.48
2022-12-01T08:31:22.087Z,18.63
2022-12-01T08:33:50.655Z,17.52
2022-12-01T08:36:18.798Z,18.48
2022-12-01T08:38:49.525Z,17.38
2022-12-01T08:41:17.196Z,18.95
2022-12-01T08:44:00.317Z,18.17
2022-12-01T08:46:32.461Z,18.60
2022-12-01T08:48:59.431Z,19.08
2022-12-01T08:51:27.112Z,18.75
2022-12-01T08:53:57.433Z,19.40
2022-12-01T08:56:29.012Z,18.45
2022-12-01T08:58:56.537Z,19.38
2022-12-01T09:01:23.792Z,19.08
2022-12-01T09:04:05.124Z,17.50
2022-12-01T09:06:39.881Z,20.40
2022-12-01T09:09:09.646Z,19.55
2022-12-01T09:11:37.353Z,20.17
2022-12-01T09:14:04.112Z,20.40
2022-12-01T09:16:31.650Z,20.33
2022-12-01T09:18:58.488Z,18.80
2022-12-01T09:21:31.334Z,19.83
2022-12-01T09:23:59.672Z,18.65
2022-12-01T09:26:27.176Z,19.45
2022-12-01T09:28:58.358Z,19.35
2022-12-01T09:31:25.934Z,18.95
2022-12-01T09:34:17.228Z,18.50
2022-12-01T09:36:44.582Z,20.25
2022-12-01T09:39:20.754Z,19.02
2022-12-01T09:41:56.128Z,21.25
2022-12-01T09:44:47.854Z,19.30
2022-12-01T09:47:36.716Z,19.30
2022-12-01T09:50:18.803Z,20.00
2022-12-01T09:52:45.626Z,20.95
2022-12-01T09:55:16.324Z,19.70
2022-12-01T09:57:47.414Z,19.38
2022-12-01T10:00:22.188Z,19.13
2022-12-01T10:03:16.668Z,19.08
2022-12-01T10:06:26.193Z,18.90
2022-12-01T10:08:59.729Z,18.67
2022-12-01T10:11:39.624Z,18.13
2022-12-01T10:14:20.139Z,17.48
2022-12-01T10:17:14.382Z,19.17
2022-12-01T10:20:06.116Z,19.38
2022-12-01T10:22:53.761Z,18.92
2022-12-01T10:25:24.753Z,18.55
2022-12-01T10:28:17.541Z,17.30
2022-12-01T10:30:53.401Z,16.67
2022-12-01T10:33:24.405Z,18.05
2022-12-01T10:35:52.870Z,17.17
2022-12-01T10:38:32.636Z,17.00
2022-12-01T10:41:02.404Z,16.20
2022-12-01T10:43:59.419Z,18.17
2022-12-01T10:46:48.266Z,17.95
2022-12-01T10:49:18.023Z,18.80
2022-12-01T10:51:52.999Z,16.83
2022-12-01T10:54:22.601Z,15.15
2022-12-01T10:56:55.965Z,15.73
2022-12-01T10:59:27.580Z,16.52
2022-12-01T11:01:55.100Z,14.70
2022-12-01T11:04:45.207Z,16.98
2022-12-01T11:07:19.107Z,15.77
2022-12-01T11:09:55.021Z,14.55
2022-12-01T11:12:23.493Z,17.02
2022-12-01T11:14:54.325Z,15.38
2022-12-01T11:17:42.863Z,15.57
2022-12-01T11:20:38.546Z,15.90
2022-12-01T11:23:26.714Z,16.23
2022-12-01T11:25:59.432Z,15.75
2022-12-01T11:28:26.824Z,16.38
2022-12-01T11:31:10.348Z,17.02
2022-12-01T11:33:51.131Z,16.38
2022-12-01T11:36:36.680Z,16.25
2022-12-01T11:39:05.020Z,14.15
2022-12-01T11:41:40.878Z,15.18
2022-12-01T11:47:24.418Z,16.58
2022-12-01T11:50:01.919Z,14.68
2022-12-01T11:52:36.605Z,15.40
2022-12-01T11:55:22.876Z,15.75
2022-12-01T11:57:55.483Z,15.93
2022-12-01T12:00:28.656Z,17.00
2022-12-01T12:03:24.509Z,18.45
2022-12-01T12:06:39.946Z,16.58
2022-12-01T12:09:30.795Z,16.63
2022-12-01T12:12:31.113Z,17.25
2022-12-01T12:15:18.854Z,16.63
2022-12-01T12:18:15.854Z,17.70
2022-12-01T12:21:01.295Z,15.40
2022-12-01T12:24:05.307Z,15.07
2022-12-01T12:26:54.514Z,16.58
2022-12-01T12:29:52.279Z,14.45
2022-12-01T12:32:44.595Z,15.38
2022-12-01T12:35:20.111Z,15.15
2022-12-01T12:38:34.693Z,14.48
2022-12-01T12:41:29.774Z,15.85
2022-12-01T12:44:18.189Z,17.45
2022-12-01T12:47:27.986Z,17.08
2022-12-01T12:50:19.736Z,16.83
2022-12-01T12:52:54.708Z,17.90
2022-12-01T12:55:30.339Z,17.10
2022-12-01T12:58:10.794Z,27.35
2022-12-01T13:00:50.429Z,17.85
2022-12-01T13:03:33.944Z,17.42
2022-12-01T13:06:10.712Z,18.00
2022-12-01T13:08:53.179Z,19.20
2022-12-01T13:11:30.516Z,18.35
2022-12-01T13:14:18.226Z,17.27
2022-12-01T13:16:50.399Z,17.23
2022-12-01T13:19:32.410Z,16.40
2022-12-01T13:22:01.300Z,16.65
2022-12-01T13:24:31.374Z,16.65
2022-12-01T13:27:06.076Z,15.63
2022-12-01T13:29:43.833Z,17.27
2022-12-01T13:32:31.519Z,16.05
2022-12-01T13:35:00.660Z,15.05
2022-12-01T13:37:34.432Z,16.23
2022-12-01T13:40:30.938Z,15.13
2022-12-01T13:43:10.274Z,15.07
2022-12-01T13:45:40.673Z,16.10
2022-12-01T13:48:29.979Z,15.02
2022-12-01T13:51:01.113Z,15.25
2022-12-01T13:53:38.892Z,16.33
2022-12-01T13:56:27.610Z,15.35
2022-12-01T13:58:55.143Z,15.55
2022-12-01T14:01:22.470Z,16.17
2022-12-01T14:04:18.165Z,15.00
2022-12-01T14:06:50.079Z,14.88
2022-12-01T14:09:36.604Z,16.00
2022-12-01T14:12:16.954Z,17.45
2022-12-01T14:14:57.412Z,15.90
2022-12-01T14:17:29.871Z,16.58
2022-12-01T14:20:20.537Z,17.25
2022-12-01T14:23:13.138Z,16.17
2022-12-01T14:25:41.825Z,18.50
2022-12-01T14:28:55.782Z,16.75
2022-12-01T14:31:24.112Z,17.27
2022-12-01T14:34:02.770Z,16.40
2022-12-01T14:39:22.364Z,18.80
2022-12-01T14:41:58.239Z,17.35
2022-12-01T14:44:48.942Z,17.52
2022-12-01T14:47:42.021Z,16.92
2022-12-01T14:50:25.246Z,17.20
2022-12-01T14:53:08.949Z,17.67
2022-12-01T14:55:47.499Z,15.95
2022-12-01T14:58:22.656Z,14.30
2022-12-01T15:01:14.155Z,15.82
2022-12-01T15:03:50.599Z,16.15
2022-12-01T15:06:20.825Z,15.95
2022-12-01T15:09:39.548Z,14.85
2022-12-01T15:12:07.677Z,15.75
2022-12-01T15:14:49.503Z,15.57
2022-12-01T15:17:34.595Z,17.10
2022-12-01T15:22:34.046Z,20.17
2022-12-01T15:25:15.589Z,18.65
2022-12-01T15:27:43.393Z,17.60
2022-12-01T15:30:15.892Z,19.52
2022-12-01T15:32:45.906Z,18.27
2022-12-01T15:35:22.829Z,19.85
2022-12-01T15:37:52.273Z,20.40
2022-12-01T15:43:39.824Z,19.48
2022-12-01T15:46:18.994Z,18.20
2022-12-01T15:48:46.034Z,19.33
2022-12-01T15:51:29.607Z,20.38
2022-12-01T15:54:01.540Z,19.98
2022-12-01T15:56:40.621Z,20.27
2022-12-01T15:59:23.987Z,20.27
2022-12-01T16:01:50.967Z,19.48
2022-12-01T16:04:22.982Z,19.05
2022-12-01T16:07:10.600Z,17.95
2022-12-01T16:09:40.402Z,18.75
2022-12-01T16:12:23.185Z,19.23
2022-12-01T16:15:00.217Z,19.00
2022-12-01T16:17:49.655Z,18.35
2022-12-01T16:20:42.940Z,18.42
2022-12-01T16:23:19.239Z,18.80
2022-12-01T16:25:48.526Z,17.35
2022-12-01T16:28:33.001Z,18.88
2022-12-01T16:30:59.818Z,18.42
2022-12-01T16:33:29.011Z,20.15
2022-12-01T16:36:00.216Z,19.23
2022-12-01T16:38:29.100Z,19.25
2022-12-01T16:40:59.875Z,17.75
2022-12-01T16:43:29.362Z,18.65
2022-12-01T16:46:06.586Z,19.55
2022-12-01T16:48:34.996Z,18.70
2022-12-01T16:51:06.409Z,19.65
2022-12-01T16:53:33.328Z,19.77
2022-12-01T16:56:03.332Z,20.38
2022-12-01T16:58:30.488Z,15.85
2022-12-01T17:00:57.597Z,19.83
2022-12-01T17:03:28.201Z,19.92
2022-12-01T17:05:56.135Z,19.80
2022-12-01T17:08:23.277Z,20.63
2022-12-01T17:10:51.460Z,20.38
2022-12-01T17:13:25.471Z,19.40
2022-12-01T17:15:54.836Z,18.98
2022-12-01T17:18:24.141Z,20.52
2022-12-01T17:21:04.282Z,20.63
2022-12-01T17:23:32.985Z,18.70
2022-12-01T17:26:01.086Z,20.10
2022-12-01T17:28:27.865Z,20.25
2022-12-01T17:30:54.698Z,21.27
2022-12-01T17:33:21.506Z,19.42
2022-12-01T17:35:49.830Z,19.50
2022-12-01T17:38:16.802Z,21.38
2022-12-01T17:40:44.130Z,20.23
2022-12-01T17:43:15.392Z,19.95
2022-12-01T17:45:43.184Z,20.50
2022-12-01T17:48:09.999Z,20.40
2022-12-01T17:50:38.150Z,23.55
2022-12-01T17:53:04.858Z,29.45
2022-12-01T17:55:31.558Z,27.73
2022-12-01T17:57:58.811Z,20.60
2022-12-01T18:00:25.740Z,21.17
2022-12-01T18:02:52.549Z,21.90
2022-12-01T18:05:19.291Z,20.38
2022-12-01T18:07:46.122Z,20.60
2022-12-01T18:10:13.066Z,20.63
2022-12-01T18:12:39.777Z,19.38
2022-12-01T18:15:07.324Z,21.10
2022-12-01T18:17:34.544Z,23.13
2022-12-01T18:20:01.537Z,22.63
2022-12-01T18:22:28.289Z,21.55
2022-12-01T18:24:56.304Z,20.33
2022-12-01T18:27:23.180Z,20.58
2022-12-01T18:29:50.125Z,20.77
2022-12-01T18:32:17.408Z,21.48
2022-12-01T18:34:44.280Z,21.17
2022-12-01T18:37:11.027Z,21.23
2022-12-01T18:39:37.804Z,20.35
2022-12-01T18:42:05.203Z,21.27
2022-12-01T18:44:31.977Z,20.83
2022-12-01T18:46:59.172Z,19.58
2022-12-01T18:49:25.988Z,21.67
2022-12-01T18:51:52.773Z,20.10
2022-12-01T18:54:19.548Z,19.42
2022-12-01T18:56:52.812Z,21.30
2022-12-01T18:59:19.631Z,20.25
2022-12-01T19:01:48.455Z,20.35
2022-12-01T19:04:16.624Z,20.65
2022-12-01T19:06:45.776Z,21.00
2022-12-01T19:09:17.477Z,21.20
2022-12-01T19:11:44.617Z,20.30
2022-12-01T19:14:18.593Z,20.75
2022-12-01T19:16:46.754Z,19.75
2022-12-01T19:19:14.041Z,22.08
2022-12-01T19:21:42.824Z,19.67
2022-12-01T19:24:09.630Z,19.80
2022-12-01T19:26:36.444Z,21.20
2022-12-01T19:29:03.691Z,20.40
2022-12-01T19:31:30.498Z,19.77
2022-12-01T19:33:57.734Z,20.30
2022-12-01T19:36:27.762Z,19.90
2022-12-01T19:38:57.945Z,19.17
2022-12-01T19:41:26.232Z,19.60
2022-12-01T19:43:54.491Z,18.95
2022-12-01T19:46:24.249Z,19.60
2022-12-01T19:49:00.382Z,18.33
2022-12-01T19:51:32.321Z,18.02
2022-12-01T19:53:59.142Z,19.27
2022-12-01T19:56:26.178Z,18.10
2022-12-01T19:58:53.079Z,19.13
2022-12-01T20:01:20.773Z,19.98
2022-12-01T20:03:51.037Z,19.60
2022-12-01T20:06:22.643Z,18.90
2022-12-01T20:08:50.322Z,18.10
2022-12-01T20:11:18.050Z,17.55
2022-12-01T20:13:47.071Z,16.95
2022-12-01T20:16:23.535Z,18.75
2022-12-01T20:18:52.164Z,13.10
2022-12-01T20:21:24.969Z,17.27
2022-12-01T20:23:58.175Z,19.83
2022-12-01T20:26:35.166Z,20.05
2022-12-01T20:29:10.745Z,18.55
2022-12-01T20:31:38.622Z,18.33
2022-12-01T20:34:14.252Z,24.85
2022-12-01T20:36:41.236Z,21.25
2022-12-01T20:39:10.108Z,20.48
2022-12-01T20:41:38.076Z,19.55
2022-12-01T20:44:07.518Z,19.40
2022-12-01T20:46:36.918Z,19.52
2022-12-01T20:49:05.405Z,17.90
2022-12-01T20:51:35.276Z,18.77
2022-12-01T20:54:38.906Z,20.40
2022-12-01T20:56:56.419Z,19.83
2022-12-01T20:59:23.285Z,20.20
2022-12-01T21:01:50.096Z,21.05
2022-12-01T21:04:17.323Z,20.40
2022-12-01T21:06:44.158Z,19.67
2022-12-01T21:09:12.416Z,20.50
2022-12-01T21:12:06.670Z,21.00
2022-12-01T21:14:44.504Z,23.70
2022-12-01T21:17:42.277Z,20.52
2022-12-01T21:20:27.146Z,22.00
2022-12-01T21:23:22.852Z,21.70
2022-12-01T21:25:50.876Z,22.30
2022-12-01T21:28:24.208Z,21.85
2022-12-01T21:31:07.228Z,23.17
2022-12-01T21:33:36.741Z,23.85
2022-12-01T21:36:15.944Z,24.10
2022-12-01T21:38:44.004Z,22.55
2022-12-01T21:41:26.605Z,23.05
2022-12-01T21:44:07.776Z,22.67
2022-12-01T21:46:35.255Z,23.75
2022-12-01T21:49:02.491Z,25.02
2022-12-01T21:51:30.864Z,22.77
2022-12-01T21:53:58.116Z,25.77
2022-12-01T21:56:28.657Z,24.63
2022-12-01T21:59:02.430Z,23.13
2022-12-01T22:01:32.020Z,23.33
2022-12-01T22:04:02.605Z,25.10
2022-12-01T22:06:39.533Z,26.38
2022-12-01T22:09:33.058Z,22.25
2022-12-01T22:12:29.083Z,24.60
2022-12-01T22:15:01.585Z,27.05
2022-12-01T22:17:29.778Z,25.15
2022-12-01T22:20:01.482Z,27.20
2022-12-01T22:22:32.708Z,26.05
2022-12-01T22:25:27.422Z,25.95
2022-12-01T22:27:54.766Z,25.73
2022-12-01T22:30:24.400Z,24.45
2022-12-01T22:33:05.052Z,28.63
2022-12-01T22:35:44.918Z,25.55
2022-12-01T22:38:36.003Z,26.95
2022-12-01T22:41:14.982Z,26.67
2022-12-01T22:44:00.602Z,28.95
2022-12-01T22:46:32.512Z,28.05
2022-12-01T22:49:22.284Z,26.23
2022-12-01T22:52:01.018Z,25.85
2022-12-01T22:57:35.018Z,25.23
2022-12-01T23:00:16.210Z,25.95
2022-12-01T23:02:43.159Z,29.25
2022-12-01T23:05:30.063Z,26.85
2022-12-01T23:07:57.629Z,25.83
2022-12-01T23:10:35.174Z,25.95
2022-12-01T23:13:15.815Z,26.50
2022-12-01T23:15:48.761Z,28.98
2022-12-01T23:18:29.294Z,27.63
2022-12-01T23:20:59.138Z,28.73
2022-12-01T23:23:29.413Z,28.90
2022-12-01T23:25:56.922Z,26.98
2022-12-01T23:28:24.841Z,27.50
2022-12-01T23:30:55.040Z,28.15
2022-12-01T23:33:25.934Z,28.55
2022-12-01T23:36:08.616Z,29.17
2022-12-01T23:38:42.439Z,24.85
2022-12-01T23:41:38.913Z,27.63
2022-12-01T23:44:36.099Z,28.02
2022-12-01T23:47:05.165Z,25.33
2022-12-01T23:49:35.531Z,22.98
2022-12-01T23:52:03.771Z,25.73
2022-12-01T23:54:34.558Z,21.73
2022-12-01T23:57:10.692Z,21.77
2022-12-01T23:59:38.476Z,25.75
